sensor_id;sensor_type;location;lat;lon;timestamp;P1;durP1;ratioP1;P2;durP2;ratioP2
72569;SDS011;60594;50.204;8.844;2024-01-06T00:01:58;4.35;;;1.73;;
72569;SDS011;60594;50.204;8.844;2024-01-06T00:04:43;5.50;;;1.58;;
72569;SDS011;60594;50.204;8.844;2024-01-06T00:07:28;8.05;;;1.77;;
72569;SDS011;60594;50.204;8.844;2024-01-06T00:10:13;4.40;;;1.70;;
72569;SDS011;60594;50.204;8.844;2024-01-06T00:12:57;5.13;;;2.13;;
72569;SDS011;60594;50.204;8.844;2024-01-06T00:15:43;5.82;;;1.75;;
72569;SDS011;60594;50.204;8.844;2024-01-06T00:18:27;3.72;;;1.73;;
72569;SDS011;60594;50.204;8.844;2024-01-06T00:21:12;5.63;;;2.17;;
72569;SDS011;60594;50.204;8.844;2024-01-06T00:23:58;6.43;;;1.80;;
72569;SDS011;60594;50.204;8.844;2024-01-06T00:26:43;5.43;;;1.88;;
72569;SDS011;60594;50.204;8.844;2024-01-06T00:29:28;4.85;;;1.70;;
72569;SDS011;60594;50.204;8.844;2024-01-06T00:32:13;5.07;;;1.60;;
72569;SDS011;60594;50.204;8.844;2024-01-06T00:34:57;4.80;;;1.75;;
72569;SDS011;60594;50.204;8.844;2024-01-06T00:37:42;5.50;;;2.10;;
72569;SDS011;60594;50.204;8.844;2024-01-06T00:40:27;4.57;;;1.92;;
72569;SDS011;60594;50.204;8.844;2024-01-06T00:43:12;4.18;;;1.67;;
72569;SDS011;60594;50.204;8.844;2024-01-06T00:45:57;4.93;;;2.05;;
72569;SDS011;60594;50.204;8.844;2024-01-06T00:48:43;3.95;;;1.80;;
72569;SDS011;60594;50.204;8.844;2024-01-06T00:51:27;5.65;;;2.38;;
72569;SDS011;60594;50.204;8.844;2024-01-06T00:54:12;5.97;;;1.58;;
72569;SDS011;60594;50.204;8.844;2024-01-06T00:56:57;6.22;;;2.03;;
72569;SDS011;60594;50.204;8.844;2024-01-06T00:59:42;5.82;;;1.95;;
72569;SDS011;60594;50.204;8.844;2024-01-06T01:02:27;6.43;;;1.92;;
72569;SDS011;60594;50.204;8.844;2024-01-06T01:05:12;4.68;;;1.88;;
72569;SDS011;60594;50.204;8.844;2024-01-06T01:07:57;5.80;;;1.90;;
72569;SDS011;60594;50.204;8.844;2024-01-06T01:10:42;5.43;;;1.83;;
72569;SDS011;60594;50.204;8.844;2024-01-06T01:13:27;5.07;;;2.22;;
72569;SDS011;60594;50.204;8.844;2024-01-06T01:16:13;6.68;;;2.10;;
72569;SDS011;60594;50.204;8.844;2024-01-06T01:18:58;5.50;;;1.83;;
72569;SDS011;60594;50.204;8.844;2024-01-06T01:21:43;4.72;;;2.45;;
72569;SDS011;60594;50.204;8.844;2024-01-06T01:24:28;5.85;;;1.92;;
72569;SDS011;60594;50.204;8.844;2024-01-06T01:27:13;6.60;;;2.00;;
72569;SDS011;60594;50.204;8.844;2024-01-06T01:29:58;5.47;;;2.30;;
72569;SDS011;60594;50.204;8.844;2024-01-06T01:32:43;6.80;;;2.85;;
72569;SDS011;60594;50.204;8.844;2024-01-06T01:35:27;9.30;;;3.22;;
72569;SDS011;60594;50.204;8.844;2024-01-06T01:38:13;6.85;;;3.78;;
72569;SDS011;60594;50.204;8.844;2024-01-06T01:40:57;7.63;;;2.78;;
72569;SDS011;60594;50.204;8.844;2024-01-06T01:43:45;5.60;;;2.60;;
72569;SDS011;60594;50.204;8.844;2024-01-06T01:46:30;5.85;;;2.28;;
72569;SDS011;60594;50.204;8.844;2024-01-06T01:49:16;5.10;;;2.17;;
72569;SDS011;60594;50.204;8.844;2024-01-06T01:52:01;6.03;;;2.08;;
72569;SDS011;60594;50.204;8.844;2024-01-06T01:54:46;7.10;;;2.00;;
72569;SDS011;60594;50.204;8.844;2024-01-06T01:57:32;6.45;;;2.13;;
72569;SDS011;60594;50.204;8.844;2024-01-06T02:00:17;4.72;;;1.55;;
72569;SDS011;60594;50.204;8.844;2024-01-06T02:03:03;3.63;;;1.70;;
72569;SDS011;60594;50.204;8.844;2024-01-06T02:05:49;4.35;;;1.45;;
72569;SDS011;60594;50.204;8.844;2024-01-06T02:08:34;5.47;;;1.65;;
72569;SDS011;60594;50.204;8.844;2024-01-06T02:11:20;5.93;;;1.70;;
72569;SDS011;60594;50.204;8.844;2024-01-06T02:14:04;5.00;;;1.52;;
72569;SDS011;60594;50.204;8.844;2024-01-06T02:16:49;7.75;;;1.92;;
72569;SDS011;60594;50.204;8.844;2024-01-06T02:19:34;5.82;;;2.10;;
72569;SDS011;60594;50.204;8.844;2024-01-06T02:22:20;7.95;;;2.00;;
72569;SDS011;60594;50.204;8.844;2024-01-06T02:25:05;4.85;;;2.17;;
72569;SDS011;60594;50.204;8.844;2024-01-06T02:27:57;6.00;;;1.83;;
72569;SDS011;60594;50.204;8.844;2024-01-06T02:30:42;4.57;;;1.80;;
72569;SDS011;60594;50.204;8.844;2024-01-06T02:33:28;5.10;;;1.80;;
72569;SDS011;60594;50.204;8.844;2024-01-06T02:36:13;4.30;;;1.45;;
72569;SDS011;60594;50.204;8.844;2024-01-06T02:38:57;6.45;;;1.67;;
72569;SDS011;60594;50.204;8.844;2024-01-06T02:41:42;4.35;;;1.95;;
72569;SDS011;60594;50.204;8.844;2024-01-06T02:44:27;5.63;;;1.90;;
72569;SDS011;60594;50.204;8.844;2024-01-06T02:47:12;6.72;;;1.85;;
72569;SDS011;60594;50.204;8.844;2024-01-06T02:49:57;8.13;;;1.80;;
72569;SDS011;60594;50.204;8.844;2024-01-06T02:52:43;3.97;;;1.50;;
72569;SDS011;60594;50.204;8.844;2024-01-06T02:55:29;5.47;;;1.73;;
72569;SDS011;60594;50.204;8.844;2024-01-06T02:58:14;4.28;;;1.65;;
72569;SDS011;60594;50.204;8.844;2024-01-06T03:00:59;3.88;;;1.92;;
72569;SDS011;60594;50.204;8.844;2024-01-06T03:03:44;4.57;;;1.70;;
72569;SDS011;60594;50.204;8.844;2024-01-06T03:06:28;6.10;;;2.05;;
72569;SDS011;60594;50.204;8.844;2024-01-06T03:09:13;4.75;;;1.73;;
72569;SDS011;60594;50.204;8.844;2024-01-06T03:11:59;4.95;;;1.83;;
72569;SDS011;60594;50.204;8.844;2024-01-06T03:14:43;4.35;;;1.50;;
72569;SDS011;60594;50.204;8.844;2024-01-06T03:17:29;7.18;;;2.30;;
72569;SDS011;60594;50.204;8.844;2024-01-06T03:20:13;6.45;;;1.83;;
72569;SDS011;60594;50.204;8.844;2024-01-06T03:22:59;4.05;;;1.98;;
72569;SDS011;60594;50.204;8.844;2024-01-06T03:25:43;5.20;;;1.67;;
72569;SDS011;60594;50.204;8.844;2024-01-06T03:28:28;3.50;;;1.83;;
72569;SDS011;60594;50.204;8.844;2024-01-06T03:31:13;3.25;;;1.50;;
72569;SDS011;60594;50.204;8.844;2024-01-06T03:33:58;4.50;;;1.65;;
72569;SDS011;60594;50.204;8.844;2024-01-06T03:36:43;5.95;;;1.50;;
72569;SDS011;60594;50.204;8.844;2024-01-06T03:39:28;5.63;;;1.55;;
72569;SDS011;60594;50.204;8.844;2024-01-06T03:42:13;5.43;;;1.65;;
72569;SDS011;60594;50.204;8.844;2024-01-06T03:44:57;6.88;;;1.70;;
72569;SDS011;60594;50.204;8.844;2024-01-06T03:47:42;6.15;;;2.13;;
72569;SDS011;60594;50.204;8.844;2024-01-06T03:50:27;5.65;;;1.85;;
72569;SDS011;60594;50.204;8.844;2024-01-06T03:53:12;4.70;;;1.77;;
72569;SDS011;60594;50.204;8.844;2024-01-06T03:55:57;7.60;;;1.70;;
72569;SDS011;60594;50.204;8.844;2024-01-06T03:58:42;4.15;;;1.60;;
72569;SDS011;60594;50.204;8.844;2024-01-06T04:01:27;5.82;;;1.70;;
72569;SDS011;60594;50.204;8.844;2024-01-06T04:04:13;4.65;;;1.80;;
72569;SDS011;60594;50.204;8.844;2024-01-06T04:06:58;4.38;;;1.80;;
72569;SDS011;60594;50.204;8.844;2024-01-06T04:09:46;4.05;;;1.65;;
72569;SDS011;60594;50.204;8.844;2024-01-06T04:12:31;8.63;;;2.03;;
72569;SDS011;60594;50.204;8.844;2024-01-06T04:15:16;4.53;;;1.98;;
72569;SDS011;60594;50.204;8.844;2024-01-06T04:18:02;5.43;;;1.85;;
72569;SDS011;60594;50.204;8.844;2024-01-06T04:20:48;5.00;;;2.05;;
72569;SDS011;60594;50.204;8.844;2024-01-06T04:23:32;5.65;;;1.92;;
72569;SDS011;60594;50.204;8.844;2024-01-06T04:26:17;4.38;;;1.70;;
72569;SDS011;60594;50.204;8.844;2024-01-06T04:29:02;3.70;;;1.80;;
72569;SDS011;60594;50.204;8.844;2024-01-06T04:31:47;4.68;;;1.85;;
72569;SDS011;60594;50.204;8.844;2024-01-06T04:34:32;6.63;;;2.00;;
72569;SDS011;60594;50.204;8.844;2024-01-06T04:37:17;8.80;;;1.80;;
72569;SDS011;60594;50.204;8.844;2024-01-06T04:40:03;9.15;;;2.10;;
72569;SDS011;60594;50.204;8.844;2024-01-06T04:42:48;4.35;;;2.00;;
72569;SDS011;60594;50.204;8.844;2024-01-06T04:45:34;4.15;;;2.00;;
72569;SDS011;60594;50.204;8.844;2024-01-06T04:48:19;5.45;;;1.77;;
72569;SDS011;60594;50.204;8.844;2024-01-06T04:51:04;3.97;;;1.88;;
72569;SDS011;60594;50.204;8.844;2024-01-06T04:53:49;5.28;;;2.28;;
72569;SDS011;60594;50.204;8.844;2024-01-06T04:56:34;3.92;;;1.88;;
72569;SDS011;60594;50.204;8.844;2024-01-06T04:59:19;4.72;;;2.15;;
72569;SDS011;60594;50.204;8.844;2024-01-06T05:02:05;4.93;;;2.03;;
72569;SDS011;60594;50.204;8.844;2024-01-06T05:04:50;6.93;;;2.25;;
72569;SDS011;60594;50.204;8.844;2024-01-06T05:07:35;4.38;;;1.88;;
72569;SDS011;60594;50.204;8.844;2024-01-06T05:10:20;5.45;;;2.03;;
72569;SDS011;60594;50.204;8.844;2024-01-06T05:13:05;4.60;;;1.83;;
72569;SDS011;60594;50.204;8.844;2024-01-06T05:15:49;5.03;;;2.13;;
72569;SDS011;60594;50.204;8.844;2024-01-06T05:18:35;5.63;;;1.75;;
72569;SDS011;60594;50.204;8.844;2024-01-06T05:21:20;4.53;;;2.20;;
72569;SDS011;60594;50.204;8.844;2024-01-06T05:24:05;5.93;;;1.85;;
72569;SDS011;60594;50.204;8.844;2024-01-06T05:26:50;4.78;;;1.60;;
72569;SDS011;60594;50.204;8.844;2024-01-06T05:29:35;6.90;;;2.13;;
72569;SDS011;60594;50.204;8.844;2024-01-06T05:32:20;4.72;;;1.85;;
72569;SDS011;60594;50.204;8.844;2024-01-06T05:35:05;4.70;;;1.92;;
72569;SDS011;60594;50.204;8.844;2024-01-06T05:37:50;4.53;;;1.75;;
72569;SDS011;60594;50.204;8.844;2024-01-06T05:40:35;3.75;;;1.42;;
72569;SDS011;60594;50.204;8.844;2024-01-06T05:43:20;4.55;;;1.80;;
72569;SDS011;60594;50.204;8.844;2024-01-06T05:46:05;3.90;;;1.98;;
72569;SDS011;60594;50.204;8.844;2024-01-06T05:48:50;5.18;;;1.67;;
72569;SDS011;60594;50.204;8.844;2024-01-06T05:51:35;3.72;;;1.63;;
72569;SDS011;60594;50.204;8.844;2024-01-06T05:54:19;6.35;;;2.45;;
72569;SDS011;60594;50.204;8.844;2024-01-06T05:57:04;5.85;;;2.00;;
72569;SDS011;60594;50.204;8.844;2024-01-06T05:59:49;4.38;;;1.60;;
72569;SDS011;60594;50.204;8.844;2024-01-06T06:02:34;5.35;;;1.98;;
72569;SDS011;60594;50.204;8.844;2024-01-06T06:05:19;4.55;;;1.77;;
72569;SDS011;60594;50.204;8.844;2024-01-06T06:08:05;5.15;;;2.30;;
72569;SDS011;60594;50.204;8.844;2024-01-06T06:10:50;5.32;;;2.08;;
72569;SDS011;60594;50.204;8.844;2024-01-06T06:13:50;5.53;;;1.90;;
72569;SDS011;60594;50.204;8.844;2024-01-06T06:16:35;3.80;;;1.83;;
72569;SDS011;60594;50.204;8.844;2024-01-06T06:19:20;4.97;;;2.30;;
72569;SDS011;60594;50.204;8.844;2024-01-06T06:22:05;8.25;;;2.35;;
72569;SDS011;60594;50.204;8.844;2024-01-06T06:24:50;5.63;;;2.13;;
72569;SDS011;60594;50.204;8.844;2024-01-06T06:27:35;4.55;;;1.73;;
72569;SDS011;60594;50.204;8.844;2024-01-06T06:30:21;5.85;;;2.38;;
72569;SDS011;60594;50.204;8.844;2024-01-06T06:33:06;5.00;;;1.90;;
72569;SDS011;60594;50.204;8.844;2024-01-06T06:35:51;5.97;;;2.17;;
72569;SDS011;60594;50.204;8.844;2024-01-06T06:38:36;6.70;;;2.50;;
72569;SDS011;60594;50.204;8.844;2024-01-06T06:41:21;5.68;;;1.90;;
72569;SDS011;60594;50.204;8.844;2024-01-06T06:44:07;4.03;;;1.80;;
72569;SDS011;60594;50.204;8.844;2024-01-06T06:46:52;6.97;;;2.20;;
72569;SDS011;60594;50.204;8.844;2024-01-06T06:49:37;5.90;;;2.35;;
72569;SDS011;60594;50.204;8.844;2024-01-06T06:52:22;4.85;;;2.35;;
72569;SDS011;60594;50.204;8.844;2024-01-06T06:55:07;4.63;;;2.13;;
72569;SDS011;60594;50.204;8.844;2024-01-06T06:57:53;4.38;;;2.08;;
72569;SDS011;60594;50.204;8.844;2024-01-06T07:00:38;5.55;;;2.50;;
72569;SDS011;60594;50.204;8.844;2024-01-06T07:03:24;5.38;;;2.00;;
72569;SDS011;60594;50.204;8.844;2024-01-06T07:06:12;6.72;;;2.45;;
72569;SDS011;60594;50.204;8.844;2024-01-06T07:08:59;5.97;;;2.30;;
72569;SDS011;60594;50.204;8.844;2024-01-06T07:11:44;7.50;;;2.03;;
72569;SDS011;60594;50.204;8.844;2024-01-06T07:14:29;4.57;;;2.53;;
72569;SDS011;60594;50.204;8.844;2024-01-06T07:17:14;4.07;;;2.20;;
72569;SDS011;60594;50.204;8.844;2024-01-06T07:19:59;5.90;;;2.53;;
72569;SDS011;60594;50.204;8.844;2024-01-06T07:22:44;5.90;;;2.33;;
72569;SDS011;60594;50.204;8.844;2024-01-06T07:25:29;13.18;;;3.03;;
72569;SDS011;60594;50.204;8.844;2024-01-06T07:28:15;6.22;;;2.35;;
72569;SDS011;60594;50.204;8.844;2024-01-06T07:31:00;5.10;;;2.22;;
72569;SDS011;60594;50.204;8.844;2024-01-06T07:33:45;6.68;;;2.75;;
72569;SDS011;60594;50.204;8.844;2024-01-06T07:36:29;7.25;;;3.13;;
72569;SDS011;60594;50.204;8.844;2024-01-06T07:39:14;4.88;;;2.75;;
72569;SDS011;60594;50.204;8.844;2024-01-06T07:42:00;7.05;;;2.45;;
72569;SDS011;60594;50.204;8.844;2024-01-06T07:44:45;5.68;;;2.92;;
72569;SDS011;60594;50.204;8.844;2024-01-06T07:47:29;7.82;;;3.20;;
72569;SDS011;60594;50.204;8.844;2024-01-06T07:50:14;8.13;;;2.40;;
72569;SDS011;60594;50.204;8.844;2024-01-06T07:52:59;6.30;;;2.53;;
72569;SDS011;60594;50.204;8.844;2024-01-06T07:55:44;5.68;;;2.70;;
72569;SDS011;60594;50.204;8.844;2024-01-06T07:58:30;9.80;;;2.65;;
72569;SDS011;60594;50.204;8.844;2024-01-06T08:01:16;4.78;;;2.40;;
72569;SDS011;60594;50.204;8.844;2024-01-06T08:04:01;6.22;;;2.88;;
72569;SDS011;60594;50.204;8.844;2024-01-06T08:06:46;5.22;;;2.47;;
72569;SDS011;60594;50.204;8.844;2024-01-06T08:09:31;6.05;;;3.03;;
72569;SDS011;60594;50.204;8.844;2024-01-06T08:12:16;7.00;;;2.83;;
72569;SDS011;60594;50.204;8.844;2024-01-06T08:15:01;7.45;;;2.33;;
72569;SDS011;60594;50.204;8.844;2024-01-06T08:17:47;5.75;;;2.60;;
72569;SDS011;60594;50.204;8.844;2024-01-06T08:20:31;6.20;;;2.95;;
72569;SDS011;60594;50.204;8.844;2024-01-06T08:23:17;6.28;;;3.00;;
72569;SDS011;60594;50.204;8.844;2024-01-06T08:28:50;4.80;;;2.55;;
72569;SDS011;60594;50.204;8.844;2024-01-06T08:31:35;6.25;;;3.00;;
72569;SDS011;60594;50.204;8.844;2024-01-06T08:34:20;5.68;;;2.70;;
72569;SDS011;60594;50.204;8.844;2024-01-06T08:37:05;6.60;;;2.95;;
72569;SDS011;60594;50.204;8.844;2024-01-06T08:39:50;5.65;;;2.95;;
72569;SDS011;60594;50.204;8.844;2024-01-06T08:42:35;7.55;;;3.47;;
72569;SDS011;60594;50.204;8.844;2024-01-06T08:45:20;5.32;;;2.83;;
72569;SDS011;60594;50.204;8.844;2024-01-06T08:48:05;5.03;;;2.78;;
72569;SDS011;60594;50.204;8.844;2024-01-06T08:50:51;6.43;;;3.08;;
72569;SDS011;60594;50.204;8.844;2024-01-06T08:53:35;5.45;;;2.65;;
72569;SDS011;60594;50.204;8.844;2024-01-06T08:56:21;6.43;;;2.65;;
72569;SDS011;60594;50.204;8.844;2024-01-06T08:59:06;6.80;;;3.22;;
72569;SDS011;60594;50.204;8.844;2024-01-06T09:01:51;9.07;;;3.35;;
72569;SDS011;60594;50.204;8.844;2024-01-06T09:04:37;7.97;;;3.05;;
72569;SDS011;60594;50.204;8.844;2024-01-06T09:07:22;8.15;;;3.63;;
72569;SDS011;60594;50.204;8.844;2024-01-06T09:10:07;7.78;;;3.72;;
72569;SDS011;60594;50.204;8.844;2024-01-06T09:12:54;6.38;;;2.97;;
72569;SDS011;60594;50.204;8.844;2024-01-06T09:15:39;6.63;;;2.95;;
72569;SDS011;60594;50.204;8.844;2024-01-06T09:18:25;5.53;;;2.97;;
72569;SDS011;60594;50.204;8.844;2024-01-06T09:21:10;8.50;;;3.13;;
72569;SDS011;60594;50.204;8.844;2024-01-06T09:23:55;7.03;;;3.40;;
72569;SDS011;60594;50.204;8.844;2024-01-06T09:26:40;7.03;;;3.10;;
72569;SDS011;60594;50.204;8.844;2024-01-06T09:29:25;7.90;;;3.72;;
72569;SDS011;60594;50.204;8.844;2024-01-06T09:32:10;7.72;;;3.45;;
72569;SDS011;60594;50.204;8.844;2024-01-06T09:34:56;9.13;;;3.28;;
72569;SDS011;60594;50.204;8.844;2024-01-06T09:37:40;9.32;;;3.47;;
72569;SDS011;60594;50.204;8.844;2024-01-06T09:40:26;10.25;;;3.60;;
72569;SDS011;60594;50.204;8.844;2024-01-06T09:43:11;6.82;;;3.60;;
72569;SDS011;60594;50.204;8.844;2024-01-06T09:45:58;7.68;;;3.30;;
72569;SDS011;60594;50.204;8.844;2024-01-06T09:48:50;7.50;;;2.95;;
72569;SDS011;60594;50.204;8.844;2024-01-06T09:51:37;7.68;;;3.47;;
72569;SDS011;60594;50.204;8.844;2024-01-06T09:54:24;6.25;;;3.28;;
72569;SDS011;60594;50.204;8.844;2024-01-06T09:57:13;6.60;;;3.20;;
72569;SDS011;60594;50.204;8.844;2024-01-06T09:59:59;7.95;;;3.55;;
72569;SDS011;60594;50.204;8.844;2024-01-06T10:02:44;7.78;;;3.22;;
72569;SDS011;60594;50.204;8.844;2024-01-06T10:05:31;6.57;;;3.25;;
72569;SDS011;60594;50.204;8.844;2024-01-06T10:08:18;7.00;;;3.28;;
72569;SDS011;60594;50.204;8.844;2024-01-06T10:11:03;9.45;;;4.07;;
72569;SDS011;60594;50.204;8.844;2024-01-06T10:13:52;7.88;;;3.22;;
72569;SDS011;60594;50.204;8.844;2024-01-06T10:16:38;7.57;;;3.78;;
72569;SDS011;60594;50.204;8.844;2024-01-06T10:19:23;7.00;;;3.80;;
72569;SDS011;60594;50.204;8.844;2024-01-06T10:22:09;8.90;;;3.63;;
72569;SDS011;60594;50.204;8.844;2024-01-06T10:24:55;7.05;;;3.92;;
72569;SDS011;60594;50.204;8.844;2024-01-06T10:27:40;7.68;;;4.03;;
72569;SDS011;60594;50.204;8.844;2024-01-06T10:30:26;7.40;;;3.72;;
72569;SDS011;60594;50.204;8.844;2024-01-06T10:33:11;7.25;;;3.97;;
72569;SDS011;60594;50.204;8.844;2024-01-06T10:35:58;7.53;;;3.75;;
72569;SDS011;60594;50.204;8.844;2024-01-06T10:38:45;7.05;;;3.47;;
72569;SDS011;60594;50.204;8.844;2024-01-06T10:41:30;5.80;;;3.30;;
72569;SDS011;60594;50.204;8.844;2024-01-06T10:44:15;8.77;;;3.92;;
72569;SDS011;60594;50.204;8.844;2024-01-06T10:47:00;6.65;;;4.05;;
72569;SDS011;60594;50.204;8.844;2024-01-06T10:49:47;7.95;;;4.03;;
72569;SDS011;60594;50.204;8.844;2024-01-06T10:52:34;6.97;;;3.90;;
72569;SDS011;60594;50.204;8.844;2024-01-06T10:55:22;10.35;;;4.07;;
72569;SDS011;60594;50.204;8.844;2024-01-06T10:58:08;7.10;;;3.65;;
72569;SDS011;60594;50.204;8.844;2024-01-06T11:00:57;8.50;;;3.75;;
72569;SDS011;60594;50.204;8.844;2024-01-06T11:03:43;6.97;;;4.15;;
72569;SDS011;60594;50.204;8.844;2024-01-06T11:06:30;6.88;;;3.60;;
72569;SDS011;60594;50.204;8.844;2024-01-06T11:09:21;8.73;;;3.53;;
72569;SDS011;60594;50.204;8.844;2024-01-06T11:12:10;6.80;;;3.58;;
72569;SDS011;60594;50.204;8.844;2024-01-06T11:14:56;6.65;;;3.83;;
72569;SDS011;60594;50.204;8.844;2024-01-06T11:17:53;7.15;;;3.50;;
72569;SDS011;60594;50.204;8.844;2024-01-06T11:21:05;7.13;;;3.50;;
72569;SDS011;60594;50.204;8.844;2024-01-06T11:24:05;7.40;;;3.10;;
72569;SDS011;60594;50.204;8.844;2024-01-06T11:27:00;8.20;;;3.72;;
72569;SDS011;60594;50.204;8.844;2024-01-06T11:29:50;7.30;;;3.88;;
72569;SDS011;60594;50.204;8.844;2024-01-06T11:32:37;9.25;;;3.78;;
72569;SDS011;60594;50.204;8.844;2024-01-06T11:35:29;7.05;;;3.80;;
72569;SDS011;60594;50.204;8.844;2024-01-06T11:38:14;7.15;;;3.38;;
72569;SDS011;60594;50.204;8.844;2024-01-06T11:40:59;7.88;;;4.60;;
72569;SDS011;60594;50.204;8.844;2024-01-06T11:43:45;9.02;;;3.45;;
72569;SDS011;60594;50.204;8.844;2024-01-06T11:46:31;7.25;;;3.97;;
72569;SDS011;60594;50.204;8.844;2024-01-06T11:49:17;6.88;;;3.50;;
72569;SDS011;60594;50.204;8.844;2024-01-06T11:52:05;7.25;;;3.50;;
72569;SDS011;60594;50.204;8.844;2024-01-06T11:54:50;8.43;;;3.72;;
72569;SDS011;60594;50.204;8.844;2024-01-06T11:57:37;7.68;;;3.80;;
72569;SDS011;60594;50.204;8.844;2024-01-06T12:00:23;8.43;;;4.20;;
72569;SDS011;60594;50.204;8.844;2024-01-06T12:03:07;7.45;;;3.85;;
72569;SDS011;60594;50.204;8.844;2024-01-06T12:06:02;7.75;;;3.85;;
72569;SDS011;60594;50.204;8.844;2024-01-06T12:08:47;8.57;;;4.22;;
72569;SDS011;60594;50.204;8.844;2024-01-06T12:11:32;8.05;;;4.15;;
72569;SDS011;60594;50.204;8.844;2024-01-06T12:14:17;16.00;;;7.65;;
72569;SDS011;60594;50.204;8.844;2024-01-06T12:17:03;8.25;;;3.97;;
72569;SDS011;60594;50.204;8.844;2024-01-06T12:19:48;7.63;;;4.03;;
72569;SDS011;60594;50.204;8.844;2024-01-06T12:22:34;7.88;;;3.83;;
72569;SDS011;60594;50.204;8.844;2024-01-06T12:25:23;7.50;;;3.78;;
72569;SDS011;60594;50.204;8.844;2024-01-06T12:28:09;7.20;;;4.10;;
72569;SDS011;60594;50.204;8.844;2024-01-06T12:30:54;8.98;;;4.50;;
72569;SDS011;60594;50.204;8.844;2024-01-06T12:33:40;8.23;;;4.20;;
72569;SDS011;60594;50.204;8.844;2024-01-06T12:36:25;9.55;;;4.35;;
72569;SDS011;60594;50.204;8.844;2024-01-06T12:39:11;8.73;;;4.30;;
72569;SDS011;60594;50.204;8.844;2024-01-06T12:42:01;8.57;;;4.70;;
72569;SDS011;60594;50.204;8.844;2024-01-06T12:44:47;8.65;;;5.38;;
72569;SDS011;60594;50.204;8.844;2024-01-06T12:47:32;9.93;;;5.15;;
72569;SDS011;60594;50.204;8.844;2024-01-06T12:50:18;8.05;;;4.78;;
72569;SDS011;60594;50.204;8.844;2024-01-06T12:53:03;9.82;;;4.90;;
72569;SDS011;60594;50.204;8.844;2024-01-06T12:55:48;10.77;;;4.57;;
72569;SDS011;60594;50.204;8.844;2024-01-06T12:58:33;6.78;;;4.05;;
72569;SDS011;60594;50.204;8.844;2024-01-06T13:01:18;11.60;;;5.53;;
72569;SDS011;60594;50.204;8.844;2024-01-06T13:04:03;7.38;;;4.22;;
72569;SDS011;60594;50.204;8.844;2024-01-06T13:06:48;10.70;;;4.45;;
72569;SDS011;60594;50.204;8.844;2024-01-06T13:09:33;8.70;;;4.30;;
72569;SDS011;60594;50.204;8.844;2024-01-06T13:12:19;9.35;;;4.97;;
72569;SDS011;60594;50.204;8.844;2024-01-06T13:15:04;8.73;;;4.40;;
72569;SDS011;60594;50.204;8.844;2024-01-06T13:17:50;10.68;;;5.75;;
72569;SDS011;60594;50.204;8.844;2024-01-06T13:20:36;9.93;;;5.28;;
72569;SDS011;60594;50.204;8.844;2024-01-06T13:23:25;10.27;;;4.75;;
72569;SDS011;60594;50.204;8.844;2024-01-06T13:26:10;8.98;;;5.20;;
72569;SDS011;60594;50.204;8.844;2024-01-06T13:28:55;9.93;;;4.85;;
72569;SDS011;60594;50.204;8.844;2024-01-06T13:31:40;10.30;;;5.07;;
72569;SDS011;60594;50.204;8.844;2024-01-06T13:34:25;9.73;;;5.00;;
72569;SDS011;60594;50.204;8.844;2024-01-06T13:37:10;9.48;;;4.07;;
72569;SDS011;60594;50.204;8.844;2024-01-06T13:39:55;7.65;;;4.57;;
72569;SDS011;60594;50.204;8.844;2024-01-06T13:42:40;7.93;;;4.65;;
72569;SDS011;60594;50.204;8.844;2024-01-06T13:45:26;8.40;;;4.50;;
72569;SDS011;60594;50.204;8.844;2024-01-06T13:48:11;9.38;;;4.85;;
72569;SDS011;60594;50.204;8.844;2024-01-06T13:50:57;8.45;;;4.88;;
72569;SDS011;60594;50.204;8.844;2024-01-06T13:53:42;8.85;;;4.43;;
72569;SDS011;60594;50.204;8.844;2024-01-06T13:56:28;11.52;;;4.95;;
72569;SDS011;60594;50.204;8.844;2024-01-06T13:59:13;7.55;;;4.53;;
72569;SDS011;60594;50.204;8.844;2024-01-06T14:01:58;10.90;;;5.40;;
72569;SDS011;60594;50.204;8.844;2024-01-06T14:04:43;8.73;;;5.05;;
72569;SDS011;60594;50.204;8.844;2024-01-06T14:07:28;8.82;;;4.38;;
72569;SDS011;60594;50.204;8.844;2024-01-06T14:10:13;9.50;;;5.00;;
72569;SDS011;60594;50.204;8.844;2024-01-06T14:12:59;8.60;;;4.55;;
72569;SDS011;60594;50.204;8.844;2024-01-06T14:15:44;8.93;;;4.30;;
72569;SDS011;60594;50.204;8.844;2024-01-06T14:18:29;9.10;;;4.25;;
72569;SDS011;60594;50.204;8.844;2024-01-06T14:21:14;7.75;;;4.10;;
72569;SDS011;60594;50.204;8.844;2024-01-06T14:24:00;7.50;;;3.60;;
72569;SDS011;60594;50.204;8.844;2024-01-06T14:26:46;8.00;;;4.10;;
72569;SDS011;60594;50.204;8.844;2024-01-06T14:29:31;7.55;;;3.95;;
72569;SDS011;60594;50.204;8.844;2024-01-06T14:32:15;6.90;;;4.20;;
72569;SDS011;60594;50.204;8.844;2024-01-06T14:35:01;9.02;;;4.53;;
72569;SDS011;60594;50.204;8.844;2024-01-06T14:37:46;8.40;;;4.60;;
72569;SDS011;60594;50.204;8.844;2024-01-06T14:40:32;8.10;;;4.72;;
72569;SDS011;60594;50.204;8.844;2024-01-06T14:43:17;9.32;;;5.18;;
72569;SDS011;60594;50.204;8.844;2024-01-06T14:46:02;10.68;;;5.22;;
72569;SDS011;60594;50.204;8.844;2024-01-06T14:48:47;8.55;;;4.47;;
72569;SDS011;60594;50.204;8.844;2024-01-06T14:51:33;8.77;;;4.75;;
72569;SDS011;60594;50.204;8.844;2024-01-06T14:54:17;8.45;;;4.40;;
72569;SDS011;60594;50.204;8.844;2024-01-06T14:57:03;11.55;;;5.05;;
72569;SDS011;60594;50.204;8.844;2024-01-06T14:59:48;8.70;;;5.05;;
72569;SDS011;60594;50.204;8.844;2024-01-06T15:02:33;8.07;;;4.78;;
72569;SDS011;60594;50.204;8.844;2024-01-06T15:05:18;10.35;;;4.65;;
72569;SDS011;60594;50.204;8.844;2024-01-06T15:08:03;9.60;;;5.65;;
72569;SDS011;60594;50.204;8.844;2024-01-06T15:10:48;10.48;;;5.28;;
72569;SDS011;60594;50.204;8.844;2024-01-06T15:13:33;9.68;;;5.47;;
72569;SDS011;60594;50.204;8.844;2024-01-06T15:16:20;10.05;;;5.05;;
72569;SDS011;60594;50.204;8.844;2024-01-06T15:19:05;11.25;;;4.70;;
72569;SDS011;60594;50.204;8.844;2024-01-06T15:21:52;9.88;;;5.25;;
72569;SDS011;60594;50.204;8.844;2024-01-06T15:24:37;8.02;;;4.00;;
72569;SDS011;60594;50.204;8.844;2024-01-06T15:27:22;8.00;;;4.32;;
72569;SDS011;60594;50.204;8.844;2024-01-06T15:30:08;7.95;;;3.97;;
72569;SDS011;60594;50.204;8.844;2024-01-06T15:32:53;7.85;;;4.60;;
72569;SDS011;60594;50.204;8.844;2024-01-06T15:35:38;9.35;;;4.75;;
72569;SDS011;60594;50.204;8.844;2024-01-06T15:38:23;6.70;;;4.22;;
72569;SDS011;60594;50.204;8.844;2024-01-06T15:41:08;9.40;;;4.90;;
72569;SDS011;60594;50.204;8.844;2024-01-06T15:43:52;8.90;;;5.05;;
72569;SDS011;60594;50.204;8.844;2024-01-06T15:46:38;9.27;;;4.53;;
72569;SDS011;60594;50.204;8.844;2024-01-06T15:49:22;11.95;;;6.03;;
72569;SDS011;60594;50.204;8.844;2024-01-06T15:52:08;9.45;;;4.43;;
72569;SDS011;60594;50.204;8.844;2024-01-06T15:54:53;7.63;;;4.07;;
72569;SDS011;60594;50.204;8.844;2024-01-06T15:57:38;7.32;;;3.53;;
72569;SDS011;60594;50.204;8.844;2024-01-06T16:00:25;8.35;;;4.00;;
72569;SDS011;60594;50.204;8.844;2024-01-06T16:03:10;7.32;;;3.85;;
72569;SDS011;60594;50.204;8.844;2024-01-06T16:05:55;8.15;;;4.10;;
72569;SDS011;60594;50.204;8.844;2024-01-06T16:08:40;6.75;;;3.80;;
72569;SDS011;60594;50.204;8.844;2024-01-06T16:11:25;7.45;;;3.45;;
72569;SDS011;60594;50.204;8.844;2024-01-06T16:14:10;8.32;;;3.90;;
72569;SDS011;60594;50.204;8.844;2024-01-06T16:16:55;7.57;;;3.78;;
72569;SDS011;60594;50.204;8.844;2024-01-06T16:19:41;7.55;;;3.90;;
72569;SDS011;60594;50.204;8.844;2024-01-06T16:22:26;7.78;;;3.97;;
72569;SDS011;60594;50.204;8.844;2024-01-06T16:25:12;7.03;;;3.75;;
72569;SDS011;60594;50.204;8.844;2024-01-06T16:27:58;8.18;;;4.05;;
72569;SDS011;60594;50.204;8.844;2024-01-06T16:30:43;7.50;;;3.17;;
72569;SDS011;60594;50.204;8.844;2024-01-06T16:33:28;7.35;;;3.72;;
72569;SDS011;60594;50.204;8.844;2024-01-06T16:36:14;6.85;;;3.60;;
72569;SDS011;60594;50.204;8.844;2024-01-06T16:38:58;8.32;;;3.63;;
72569;SDS011;60594;50.204;8.844;2024-01-06T16:41:44;7.82;;;3.53;;